createdAt,value
2022-09-25T00:01:53.564Z,25.70
2022-09-25T00:04:27.714Z,25.70
2022-09-25T00:07:01.706Z,25.70
2022-09-25T00:09:35.775Z,25.70
2022-09-25T00:12:09.837Z,25.70
2022-09-25T00:14:43.894Z,25.70
2022-09-25T00:17:19.605Z,25.70
2022-09-25T00:19:52.709Z,25.70
2022-09-25T00:22:27.021Z,25.70
2022-09-25T00:25:03.572Z,25.70
2022-09-25T00:27:37.816Z,25.70
2022-09-25T00:30:14.214Z,25.70
2022-09-25T00:32:49.658Z,25.70
2022-09-25T00:35:23.696Z,25.70
2022-09-25T00:37:57.706Z,25.70
2022-09-25T00:40:31.766Z,25.70
2022-09-25T00:43:11.189Z,25.70
2022-09-25T00:45:45.797Z,25.70
2022-09-25T00:48:21.282Z,25.70
2022-09-25T00:50:56.944Z,25.70
2022-09-25T00:53:33.278Z,25.70
2022-09-25T00:56:08.618Z,25.70
2022-09-25T00:58:46.623Z,25.70
2022-09-25T01:01:22.559Z,25.70
2022-09-25T01:03:57.972Z,25.70
2022-09-25T01:06:33.187Z,25.70
2022-09-25T01:09:07.921Z,25.60
2022-09-25T01:11:41.887Z,25.70
2022-09-25T01:14:17.592Z,25.70
2022-09-25T01:16:58.139Z,25.70
2022-09-25T01:19:48.179Z,25.60
2022-09-25T01:22:36.428Z,25.60
2022-09-25T01:25:16.687Z,25.60
2022-09-25T01:28:15.574Z,25.60
2022-09-25T01:31:00.558Z,25.70
2022-09-25T01:33:42.789Z,25.60
2022-09-25T01:36:24.155Z,25.60
2022-09-25T01:39:08.424Z,25.60
2022-09-25T01:41:48.154Z,25.60
2022-09-25T01:44:29.095Z,25.60
2022-09-25T01:47:10.563Z,25.60
2022-09-25T01:49:49.840Z,25.60
2022-09-25T01:52:28.510Z,25.60
2022-09-25T01:55:09.340Z,25.60
2022-09-25T01:57:49.118Z,25.60
2022-09-25T02:00:25.372Z,25.60
2022-09-25T02:03:08.342Z,25.60
2022-09-25T02:05:47.803Z,25.60
2022-09-25T02:08:26.197Z,25.60
2022-09-25T02:11:03.069Z,25.60
2022-09-25T02:13:42.098Z,25.60
2022-09-25T02:16:19.967Z,25.60
2022-09-25T02:19:13.056Z,25.60
2022-09-25T02:21:57.077Z,25.60
2022-09-25T02:24:37.402Z,25.60
2022-09-25T02:27:11.541Z,25.70
2022-09-25T02:29:45.608Z,25.60
2022-09-25T02:32:22.822Z,25.60
2022-09-25T02:34:59.984Z,25.60
2022-09-25T02:37:33.906Z,25.60
2022-09-25T02:40:08.877Z,25.60
2022-09-25T02:42:49.593Z,25.60
2022-09-25T02:45:35.553Z,25.60
2022-09-25T02:48:16.785Z,25.60
2022-09-25T02:50:58.704Z,25.60
2022-09-25T02:53:39.983Z,25.60
2022-09-25T02:56:18.459Z,25.70
2022-09-25T02:58:55.608Z,25.60
2022-09-25T03:01:33.100Z,25.60
2022-09-25T03:04:08.226Z,25.60
2022-09-25T03:06:44.658Z,25.60
2022-09-25T03:09:22.438Z,25.60
2022-09-25T03:11:57.754Z,25.60
2022-09-25T03:14:31.835Z,25.70
2022-09-25T03:17:08.418Z,25.70
2022-09-25T03:19:42.526Z,25.60
2022-09-25T03:22:19.248Z,25.60
2022-09-25T03:24:55.830Z,25.60
2022-09-25T03:27:30.173Z,25.60
2022-09-25T03:30:04.226Z,25.70
2022-09-25T03:32:39.210Z,25.60
2022-09-25T03:35:13.286Z,25.60
2022-09-25T03:37:48.691Z,25.60
2022-09-25T03:40:22.745Z,25.60
2022-09-25T03:42:56.861Z,25.60
2022-09-25T03:45:31.090Z,25.60
2022-09-25T03:48:05.083Z,25.70
2022-09-25T03:50:39.477Z,25.70
2022-09-25T03:53:14.815Z,25.70
2022-09-25T03:55:49.127Z,25.60
2022-09-25T03:58:23.328Z,25.60
2022-09-25T04:00:58.395Z,25.60
2022-09-25T04:03:34.016Z,25.60
2022-09-25T04:06:09.948Z,25.60
2022-09-25T04:08:48.310Z,25.70
2022-09-25T04:11:24.310Z,25.60
2022-09-25T04:13:58.304Z,25.60
2022-09-25T04:16:32.622Z,25.70
2022-09-25T04:19:07.097Z,25.60
2022-09-25T04:21:41.214Z,25.70
2022-09-25T04:24:34.040Z,25.70
2022-09-25T04:27:08.941Z,25.70
2022-09-25T04:29:42.805Z,25.70
2022-09-25T04:32:35.189Z,25.70
2022-09-25T04:35:09.787Z,25.70
2022-09-25T04:37:43.851Z,25.60
2022-09-25T04:40:19.530Z,25.70
2022-09-25T04:42:57.751Z,25.60
2022-09-25T04:45:34.310Z,25.60
2022-09-25T04:48:08.366Z,25.70
2022-09-25T04:50:48.469Z,25.60
2022-09-25T04:53:23.105Z,25.60
2022-09-25T04:56:03.197Z,25.60
2022-09-25T04:58:37.347Z,25.70
2022-09-25T05:01:11.420Z,25.60
2022-09-25T05:03:45.355Z,25.70
2022-09-25T05:06:19.293Z,25.70
2022-09-25T05:08:53.251Z,25.70
2022-09-25T05:11:29.006Z,25.70
2022-09-25T05:14:03.271Z,25.70
2022-09-25T05:16:37.196Z,25.70
2022-09-25T05:19:11.292Z,25.70
2022-09-25T05:21:45.605Z,25.70
2022-09-25T05:24:19.499Z,25.70
2022-09-25T05:26:54.854Z,25.70
2022-09-25T05:29:28.827Z,25.70
2022-09-25T05:32:03.105Z,25.70
2022-09-25T05:34:37.098Z,25.70
2022-09-25T05:37:10.993Z,25.70
2022-09-25T05:39:45.030Z,25.70
2022-09-25T05:42:20.403Z,25.70
2022-09-25T05:44:54.395Z,25.70
2022-09-25T05:47:28.411Z,25.70
2022-09-25T05:50:04.464Z,25.70
2022-09-25T05:52:38.737Z,25.70
2022-09-25T05:55:12.920Z,25.70
2022-09-25T05:57:50.694Z,25.70
2022-09-25T06:00:24.699Z,25.70
2022-09-25T06:02:58.657Z,25.70
2022-09-25T06:05:32.772Z,25.60
2022-09-25T06:08:06.952Z,25.70
2022-09-25T06:10:41.423Z,25.70
2022-09-25T06:13:17.091Z,25.60
2022-09-25T06:15:55.394Z,25.60
2022-09-25T06:18:29.772Z,25.60
2022-09-25T06:21:06.556Z,25.70
2022-09-25T06:23:40.786Z,25.60
2022-09-25T06:26:15.142Z,25.70
2022-09-25T06:28:51.023Z,25.70
2022-09-25T06:31:25.090Z,25.70
2022-09-25T06:33:59.181Z,25.70
2022-09-25T06:36:33.401Z,25.70
2022-09-25T06:39:08.777Z,25.80
2022-09-25T06:41:42.876Z,25.80
2022-09-25T06:44:20.319Z,25.80
2022-09-25T06:46:54.661Z,25.90
2022-09-25T06:49:28.805Z,25.90
2022-09-25T06:52:03.266Z,25.90
2022-09-25T06:54:40.556Z,25.90
2022-09-25T06:57:17.319Z,26.00
2022-09-25T06:59:52.783Z,26.00
2022-09-25T07:02:44.331Z,26.00
2022-09-25T07:05:19.453Z,26.10
2022-09-25T07:07:53.537Z,26.10
2022-09-25T07:10:27.899Z,26.10
2022-09-25T07:13:01.907Z,26.10
2022-09-25T07:15:37.763Z,26.20
2022-09-25T07:18:11.875Z,26.10
2022-09-25T07:20:47.205Z,26.20
2022-09-25T07:23:22.564Z,26.20
2022-09-25T07:25:56.737Z,26.20
2022-09-25T07:28:30.626Z,26.20
2022-09-25T07:31:18.205Z,26.20
2022-09-25T07:33:52.202Z,26.30
2022-09-25T07:36:26.475Z,26.20
2022-09-25T07:39:00.558Z,26.30
2022-09-25T07:41:35.143Z,26.30
2022-09-25T07:44:27.992Z,26.30
2022-09-25T07:47:05.457Z,26.30
2022-09-25T07:49:40.329Z,26.30
2022-09-25T07:52:14.485Z,26.30
2022-09-25T07:54:49.009Z,26.30
2022-09-25T07:57:23.229Z,26.30
2022-09-25T07:59:57.501Z,26.30
2022-09-25T08:02:35.353Z,26.30
2022-09-25T08:05:11.539Z,26.30
2022-09-25T08:07:45.568Z,26.30
2022-09-25T08:10:20.275Z,26.30
2022-09-25T08:12:54.438Z,26.40
2022-09-25T08:15:28.575Z,26.40
2022-09-25T08:18:04.267Z,26.40
2022-09-25T08:20:40.323Z,26.40
2022-09-25T08:23:14.468Z,26.40
2022-09-25T08:25:49.842Z,26.40
2022-09-25T08:28:24.464Z,26.50
2022-09-25T08:31:00.491Z,26.50
2022-09-25T08:33:36.680Z,26.50
2022-09-25T08:36:11.025Z,26.50
2022-09-25T08:38:45.672Z,26.50
2022-09-25T08:41:24.130Z,26.60
2022-09-25T08:44:04.100Z,26.60
2022-09-25T08:47:02.051Z,26.60
2022-09-25T08:49:42.091Z,26.60
2022-09-25T08:52:18.623Z,26.60
2022-09-25T08:54:53.164Z,26.60
2022-09-25T08:57:37.301Z,26.70
2022-09-25T09:00:15.363Z,26.70
2022-09-25T09:02:54.854Z,26.70
2022-09-25T09:05:33.998Z,26.80
2022-09-25T09:08:11.883Z,26.80
2022-09-25T09:10:50.319Z,26.80
2022-09-25T09:13:30.783Z,26.80
2022-09-25T09:16:10.641Z,26.80
2022-09-25T09:18:45.252Z,26.90
2022-09-25T09:21:26.705Z,26.90
2022-09-25T09:24:08.045Z,26.90
2022-09-25T09:26:54.919Z,26.90
2022-09-25T09:29:44.353Z,26.90
2022-09-25T09:32:33.136Z,26.90
2022-09-25T09:35:16.875Z,26.90
2022-09-25T09:38:00.016Z,26.90
2022-09-25T09:41:00.195Z,27.00
2022-09-25T09:43:58.928Z,27.00
2022-09-25T09:46:40.735Z,27.00
2022-09-25T09:49:19.927Z,27.00
2022-09-25T09:51:59.076Z,26.90
2022-09-25T09:54:46.138Z,27.00
2022-09-25T09:57:23.257Z,27.00
2022-09-25T10:00:04.562Z,27.00
2022-09-25T10:02:48.421Z,27.00
2022-09-25T10:05:26.719Z,27.00
2022-09-25T10:08:00.984Z,27.10
2022-09-25T10:10:39.000Z,27.00
2022-09-25T10:13:19.351Z,27.00
2022-09-25T10:15:57.905Z,27.10
2022-09-25T10:18:38.142Z,27.10
2022-09-25T10:21:15.378Z,27.20
2022-09-25T10:23:51.374Z,27.20
2022-09-25T10:26:29.587Z,27.20
2022-09-25T10:29:05.484Z,27.20
2022-09-25T10:31:41.749Z,27.20
2022-09-25T10:34:22.496Z,27.20
2022-09-25T10:36:56.609Z,27.20
2022-09-25T10:39:43.974Z,27.20
2022-09-25T10:42:41.197Z,27.20
2022-09-25T10:45:30.646Z,27.20
2022-09-25T10:48:46.108Z,27.20
2022-09-25T10:51:21.551Z,27.20
2022-09-25T10:54:13.268Z,27.20
2022-09-25T10:56:49.025Z,27.20
2022-09-25T10:59:25.774Z,27.20
2022-09-25T11:01:59.994Z,27.20
2022-09-25T11:04:35.933Z,27.20
2022-09-25T11:07:21.125Z,27.20
2022-09-25T11:09:59.951Z,27.20
2022-09-25T11:12:34.784Z,27.20
2022-09-25T11:15:19.761Z,27.20
2022-09-25T11:17:55.228Z,27.20
2022-09-25T11:20:30.996Z,27.20
2022-09-25T11:23:21.338Z,27.10
2022-09-25T11:26:06.071Z,27.20
2022-09-25T11:28:45.788Z,27.20
2022-09-25T11:31:25.920Z,27.20
2022-09-25T11:34:12.638Z,27.20
2022-09-25T11:36:50.189Z,27.10
2022-09-25T11:39:45.251Z,27.10
2022-09-25T11:42:27.021Z,27.10
2022-09-25T11:45:09.909Z,27.10
2022-09-25T11:47:54.823Z,27.10
2022-09-25T11:50:37.494Z,27.10
2022-09-25T11:53:19.840Z,27.10
2022-09-25T11:56:12.366Z,27.00
2022-09-25T11:59:02.530Z,27.00
2022-09-25T12:01:41.647Z,27.00
2022-09-25T12:04:44.830Z,27.00
2022-09-25T12:07:33.564Z,27.00
2022-09-25T12:10:21.095Z,27.00
2022-09-25T12:13:03.377Z,27.00
2022-09-25T12:15:52.258Z,26.90
2022-09-25T12:18:42.582Z,27.00
2022-09-25T12:21:22.402Z,27.00
2022-09-25T12:24:03.862Z,27.00
2022-09-25T12:26:48.117Z,27.00
2022-09-25T12:29:37.645Z,27.00
2022-09-25T12:32:26.805Z,27.00
2022-09-25T12:35:15.264Z,26.90
2022-09-25T12:37:54.196Z,26.90
2022-09-25T12:40:34.047Z,26.90
2022-09-25T12:43:14.983Z,26.90
2022-09-25T12:45:52.936Z,26.90
2022-09-25T12:48:35.331Z,26.90
2022-09-25T12:51:14.549Z,26.90
2022-09-25T12:53:57.093Z,26.90
2022-09-25T12:56:37.749Z,26.80
2022-09-25T12:59:17.580Z,26.80
2022-09-25T13:01:59.039Z,26.80
2022-09-25T13:04:44.685Z,26.80
2022-09-25T13:07:25.053Z,26.80
2022-09-25T13:10:03.882Z,26.80
2022-09-25T13:12:39.225Z,26.70
2022-09-25T13:15:16.781Z,26.70
2022-09-25T13:17:51.330Z,26.70
2022-09-25T13:20:53.597Z,26.70
2022-09-25T13:23:37.822Z,26.70
2022-09-25T13:26:15.114Z,26.70
2022-09-25T13:28:53.776Z,26.60
2022-09-25T13:31:29.827Z,26.60
2022-09-25T13:34:07.657Z,26.60
2022-09-25T13:36:47.448Z,26.60
2022-09-25T13:39:45.034Z,26.60
2022-09-25T13:42:27.289Z,26.60
2022-09-25T13:45:09.107Z,26.50
2022-09-25T13:48:07.219Z,26.50
2022-09-25T13:50:43.941Z,26.50
2022-09-25T13:53:34.978Z,26.50
2022-09-25T13:56:29.878Z,26.40
2022-09-25T13:59:24.949Z,26.50
2022-09-25T14:02:24.730Z,26.40
2022-09-25T14:04:58.939Z,26.40
2022-09-25T14:07:34.003Z,26.40
2022-09-25T14:10:12.826Z,26.40
2022-09-25T14:12:49.295Z,26.40
2022-09-25T14:15:30.601Z,26.40
2022-09-25T14:18:08.515Z,26.30
2022-09-25T14:20:45.197Z,26.30
2022-09-25T14:23:26.435Z,26.30
2022-09-25T14:26:01.230Z,26.30
2022-09-25T14:28:45.296Z,26.30
2022-09-25T14:31:34.585Z,26.30
2022-09-25T14:34:33.695Z,26.20
2022-09-25T14:37:22.496Z,26.20
2022-09-25T14:40:05.782Z,26.20
2022-09-25T14:42:56.687Z,26.20
2022-09-25T14:46:03.177Z,26.20
2022-09-25T14:48:45.076Z,26.20
2022-09-25T14:51:25.593Z,26.20
2022-09-25T14:54:03.541Z,26.20
2022-09-25T14:56:38.298Z,26.10
2022-09-25T14:59:18.005Z,26.10
2022-09-25T15:01:54.279Z,26.10
2022-09-25T15:04:32.413Z,26.10
2022-09-25T15:07:16.619Z,26.10
2022-09-25T15:09:55.322Z,26.10
2022-09-25T15:12:31.566Z,26.10
2022-09-25T15:15:08.717Z,26.10
2022-09-25T15:17:49.602Z,26.10
2022-09-25T15:20:27.360Z,26.10
2022-09-25T15:23:05.397Z,26.10
2022-09-25T15:25:43.529Z,26.00
2022-09-25T15:28:19.805Z,26.00
2022-09-25T15:30:59.763Z,26.00
2022-09-25T15:33:37.268Z,26.00
2022-09-25T15:36:20.363Z,26.00
2022-09-25T15:38:55.408Z,26.00
2022-09-25T15:41:30.553Z,26.00
2022-09-25T15:44:19.031Z,26.00
2022-09-25T15:46:55.164Z,26.00
2022-09-25T15:49:34.254Z,26.00
2022-09-25T15:52:24.170Z,26.00
2022-09-25T15:55:03.416Z,26.00
2022-09-25T15:57:37.886Z,26.00
2022-09-25T16:00:37.813Z,26.00
2022-09-25T16:03:34.653Z,26.00
2022-09-25T16:06:14.052Z,26.00
2022-09-25T16:08:51.339Z,26.00
2022-09-25T16:11:26.859Z,26.00
2022-09-25T16:14:22.645Z,26.00
2022-09-25T16:16:58.025Z,26.00
2022-09-25T16:19:35.068Z,26.10
2022-09-25T16:22:23.742Z,26.00
2022-09-25T16:24:59.562Z,26.00
2022-09-25T16:27:35.758Z,26.00
2022-09-25T16:30:18.507Z,26.00
2022-09-25T16:32:56.455Z,26.00
2022-09-25T16:36:04.526Z,26.00
2022-09-25T16:38:33.200Z,26.00
2022-09-25T16:41:21.571Z,26.00
2022-09-25T16:44:14.263Z,26.00
2022-09-25T16:47:05.327Z,26.00
2022-09-25T16:49:39.312Z,26.00
2022-09-25T16:52:20.583Z,26.00
2022-09-25T16:54:57.072Z,26.00
2022-09-25T16:57:35.584Z,26.00
2022-09-25T17:00:15.597Z,26.00
2022-09-25T17:02:49.925Z,26.00
2022-09-25T17:05:27.743Z,26.10
2022-09-25T17:08:12.653Z,26.00
2022-09-25T17:10:48.191Z,26.10
2022-09-25T17:13:28.574Z,26.10
2022-09-25T17:16:02.817Z,26.10
2022-09-25T17:18:37.313Z,26.10
2022-09-25T17:21:15.268Z,26.10
2022-09-25T17:23:49.711Z,26.10
2022-09-25T17:26:25.922Z,26.10
2022-09-25T17:29:01.307Z,26.10
2022-09-25T17:31:35.922Z,26.10
2022-09-25T17:34:17.736Z,26.10
2022-09-25T17:36:52.399Z,26.10
2022-09-25T17:39:26.647Z,26.10
2022-09-25T17:42:01.223Z,26.10
2022-09-25T17:44:36.797Z,26.10
2022-09-25T17:47:12.701Z,26.10
2022-09-25T17:49:47.269Z,26.20
2022-09-25T17:52:22.813Z,26.20
2022-09-25T17:54:57.086Z,26.10
2022-09-25T17:57:31.225Z,26.10
2022-09-25T18:00:07.576Z,26.10
2022-09-25T18:02:41.964Z,26.10
2022-09-25T18:05:18.612Z,26.10
2022-09-25T18:07:52.797Z,26.20
2022-09-25T18:10:29.466Z,26.20
2022-09-25T18:13:04.152Z,26.20
2022-09-25T18:15:47.923Z,26.20
2022-09-25T18:18:23.531Z,26.20
2022-09-25T18:21:14.780Z,26.20
2022-09-25T18:23:49.241Z,26.20
2022-09-25T18:26:26.766Z,26.20
2022-09-25T18:29:03.093Z,26.20
2022-09-25T18:31:38.582Z,26.20
2022-09-25T18:34:12.926Z,26.20
2022-09-25T18:36:49.317Z,26.20
2022-09-25T18:39:23.728Z,26.20
2022-09-25T18:41:58.158Z,26.30
2022-09-25T18:44:38.456Z,26.30
2022-09-25T18:47:15.735Z,26.30
2022-09-25T18:52:51.754Z,26.30
2022-09-25T18:55:26.475Z,26.30
2022-09-25T18:58:01.772Z,26.30
2022-09-25T19:00:36.165Z,26.30
2022-09-25T19:03:11.621Z,26.30
2022-09-25T19:05:45.773Z,26.30
2022-09-25T19:08:20.020Z,26.30
2022-09-25T19:10:54.195Z,26.30
2022-09-25T19:13:29.520Z,26.30
2022-09-25T19:16:04.249Z,26.30
2022-09-25T19:18:40.394Z,26.30
2022-09-25T19:21:16.175Z,26.40
2022-09-25T19:23:50.945Z,26.30
2022-09-25T19:26:27.048Z,26.30
2022-09-25T19:29:01.867Z,26.30
2022-09-25T19:31:36.335Z,26.30
2022-09-25T19:34:11.819Z,26.30
2022-09-25T19:36:45.779Z,26.30
2022-09-25T19:39:20.012Z,26.40
2022-09-25T19:41:55.415Z,26.30
2022-09-25T19:44:32.476Z,26.30
2022-09-25T19:47:09.460Z,26.40
2022-09-25T19:49:45.010Z,26.40
2022-09-25T19:52:22.500Z,26.30
2022-09-25T19:54:56.630Z,26.30
2022-09-25T19:57:30.578Z,26.40
2022-09-25T20:00:05.284Z,26.40
2022-09-25T20:02:46.770Z,26.40
2022-09-25T20:05:22.355Z,26.40
2022-09-25T20:07:56.384Z,26.30
2022-09-25T20:10:30.909Z,26.30
2022-09-25T20:13:05.462Z,26.30
2022-09-25T20:15:39.906Z,26.30
2022-09-25T20:18:14.031Z,26.30
2022-09-25T20:20:51.999Z,26.30
2022-09-25T20:23:25.987Z,26.30
2022-09-25T20:26:09.389Z,26.30
2022-09-25T20:28:45.253Z,26.30
2022-09-25T20:31:19.585Z,26.30
2022-09-25T20:33:54.405Z,26.30
2022-09-25T20:36:30.469Z,26.30
2022-09-25T20:39:05.243Z,26.30
2022-09-25T20:41:39.304Z,26.30
2022-09-25T20:44:13.768Z,26.30
2022-09-25T20:46:48.128Z,26.30
2022-09-25T20:49:23.119Z,26.30
2022-09-25T20:51:58.532Z,26.30
2022-09-25T20:54:32.661Z,26.30
2022-09-25T20:57:06.658Z,26.30
2022-09-25T20:59:40.605Z,26.30
2022-09-25T21:02:14.806Z,26.30
2022-09-25T21:04:51.100Z,26.20
2022-09-25T21:07:27.006Z,26.30
2022-09-25T21:10:01.146Z,26.20
2022-09-25T21:12:35.466Z,26.20
2022-09-25T21:15:10.219Z,26.20
2022-09-25T21:17:44.362Z,26.20
2022-09-25T21:20:18.721Z,26.20
2022-09-25T21:22:54.299Z,26.20
2022-09-25T21:25:29.194Z,26.20
2022-09-25T21:28:03.621Z,26.20
2022-09-25T21:30:39.681Z,26.20
2022-09-25T21:33:14.000Z,26.20
2022-09-25T21:35:48.800Z,26.20
2022-09-25T21:38:24.155Z,26.20
2022-09-25T21:41:00.386Z,26.20
2022-09-25T21:43:35.802Z,26.20
2022-09-25T21:46:14.736Z,26.20
2022-09-25T21:48:50.459Z,26.20
2022-09-25T21:51:26.836Z,26.20
2022-09-25T21:54:02.536Z,26.20
2022-09-25T21:56:36.581Z,26.20
2022-09-25T21:59:10.723Z,26.30
2022-09-25T22:01:44.818Z,26.20
2022-09-25T22:04:18.959Z,26.20
2022-09-25T22:06:53.149Z,26.20
2022-09-25T22:09:28.724Z,26.20
2022-09-25T22:12:03.103Z,26.20
2022-09-25T22:14:37.627Z,26.20
2022-09-25T22:17:12.311Z,26.20
2022-09-25T22:19:46.407Z,26.20
2022-09-25T22:22:20.932Z,26.20
2022-09-25T22:24:56.811Z,26.20
2022-09-25T22:27:30.897Z,26.20
2022-09-25T22:30:05.146Z,26.20
2022-09-25T22:32:39.108Z,26.20
2022-09-25T22:35:13.113Z,26.20
2022-09-25T22:37:47.171Z,26.20
2022-09-25T22:40:22.738Z,26.20
2022-09-25T22:42:56.727Z,26.20
2022-09-25T22:45:30.754Z,26.20
2022-09-25T22:48:04.705Z,26.20
2022-09-25T22:50:38.730Z,26.20
2022-09-25T22:53:12.757Z,26.30
2022-09-25T22:55:48.970Z,26.20
2022-09-25T22:58:23.356Z,26.20
2022-09-25T23:00:57.353Z,26.20
2022-09-25T23:03:31.383Z,26.20
2022-09-25T23:06:05.940Z,26.20
2022-09-25T23:08:40.025Z,26.20
2022-09-25T23:11:15.408Z,26.20
2022-09-25T23:13:50.813Z,26.20
2022-09-25T23:16:25.446Z,26.20
2022-09-25T23:19:00.676Z,26.20
2022-09-25T23:21:34.889Z,26.20
2022-09-25T23:24:11.833Z,26.20
2022-09-25T23:26:47.414Z,26.20
2022-09-25T23:29:22.815Z,26.20
2022-09-25T23:31:56.704Z,26.20
2022-09-25T23:34:30.727Z,26.30
2022-09-25T23:37:04.803Z,26.20
2022-09-25T23:39:39.113Z,26.30
2022-09-25T23:42:14.639Z,26.20
2022-09-25T23:44:48.558Z,26.20
2022-09-25T23:47:24.947Z,26.20
2022-09-25T23:50:04.152Z,26.20
2022-09-25T23:52:38.678Z,26.20
2022-09-25T23:55:12.625Z,26.20
2022-09-25T23:57:47.946Z,26.20
